createdAt,value
2022-08-20T00:02:41.730Z,49.28
2022-08-20T00:08:06.823Z,49.29
2022-08-20T00:13:35.651Z,48.91
2022-08-20T00:18:57.346Z,48.98
2022-08-20T00:24:19.103Z,48.79
2022-08-20T00:29:40.839Z,48.89
2022-08-20T00:35:02.508Z,49.06
2022-08-20T00:40:30.971Z,48.70
2022-08-20T00:45:56.518Z,48.50
2022-08-20T00:51:33.914Z,48.70
2022-08-20T00:57:23.008Z,48.62
2022-08-20T01:02:46.672Z,49.01
2022-08-20T01:08:09.390Z,48.72
2022-08-20T01:13:31.811Z,48.66
2022-08-20T01:18:54.606Z,48.58
2022-08-20T01:24:34.811Z,48.67
2022-08-20T01:29:57.106Z,48.56
2022-08-20T01:35:23.257Z,48.58
2022-08-20T01:41:06.632Z,48.71
2022-08-20T01:46:32.955Z,48.12
2022-08-20T01:52:06.245Z,48.60
2022-08-20T01:57:29.413Z,48.67
2022-08-20T02:02:51.557Z,48.48
2022-08-20T02:08:13.260Z,48.57
2022-08-20T02:13:35.096Z,48.54
2022-08-20T02:19:01.299Z,48.09
2022-08-20T02:24:23.098Z,48.52
2022-08-20T02:29:46.801Z,48.37
2022-08-20T02:35:12.188Z,48.01
2022-08-20T02:40:34.140Z,48.45
2022-08-20T02:45:55.850Z,48.19
2022-08-20T02:51:17.590Z,48.24
2022-08-20T02:56:52.386Z,48.23
2022-08-20T03:02:15.553Z,48.11
2022-08-20T03:07:48.290Z,48.24
2022-08-20T03:13:13.722Z,48.28
2022-08-20T03:18:42.755Z,48.34
2022-08-20T03:24:05.716Z,48.34
2022-08-20T03:29:27.415Z,48.13
2022-08-20T03:34:49.103Z,48.16
2022-08-20T03:40:15.700Z,48.12
2022-08-20T03:45:39.614Z,48.14
2022-08-20T03:51:01.418Z,48.11
2022-08-20T03:56:23.370Z,48.28
2022-08-20T04:01:46.741Z,48.07
2022-08-20T04:07:25.981Z,48.11
2022-08-20T04:12:52.960Z,48.26
2022-08-20T04:18:20.765Z,47.97
2022-08-20T04:23:42.464Z,48.13
2022-08-20T04:29:04.724Z,48.02
2022-08-20T04:34:26.492Z,47.94
2022-08-20T04:40:09.715Z,47.83
2022-08-20T04:45:32.953Z,47.98
2022-08-20T04:50:56.168Z,47.99
2022-08-20T04:56:26.142Z,47.91
2022-08-20T05:01:47.810Z,48.00
2022-08-20T05:07:11.385Z,47.93
2022-08-20T05:12:33.091Z,48.26
2022-08-20T05:17:58.034Z,48.25
2022-08-20T05:23:21.104Z,47.82
2022-08-20T05:28:58.065Z,47.83
2022-08-20T05:34:20.609Z,47.81
2022-08-20T05:39:42.497Z,47.77
2022-08-20T05:45:11.061Z,47.81
2022-08-20T05:50:33.378Z,48.14
2022-08-20T05:55:55.077Z,47.79
2022-08-20T06:01:16.795Z,47.67
2022-08-20T06:06:46.122Z,48.07
2022-08-20T06:12:09.602Z,47.94
2022-08-20T06:17:34.880Z,48.06
2022-08-20T06:23:01.250Z,47.67
2022-08-20T06:28:23.666Z,47.78
2022-08-20T06:33:45.474Z,47.79
2022-08-20T06:39:07.173Z,47.61
2022-08-20T06:44:29.192Z,47.70
2022-08-20T06:49:50.909Z,47.21
2022-08-20T06:55:15.265Z,47.60
2022-08-20T07:00:39.310Z,47.45
2022-08-20T07:06:01.075Z,47.45
2022-08-20T07:11:27.799Z,47.54
2022-08-20T07:16:50.652Z,47.67
2022-08-20T07:22:14.932Z,47.14
2022-08-20T07:27:36.718Z,47.50
2022-08-20T07:32:58.594Z,47.07
2022-08-20T07:38:24.562Z,47.42
2022-08-20T07:43:47.574Z,47.32
2022-08-20T07:49:10.102Z,47.52
2022-08-20T07:54:32.045Z,47.09
2022-08-20T07:59:53.981Z,47.25
2022-08-20T08:05:16.349Z,46.75
2022-08-20T08:10:40.901Z,47.05
2022-08-20T08:16:06.409Z,46.71
2022-08-20T08:21:30.116Z,46.92
2022-08-20T08:26:52.628Z,47.10
2022-08-20T08:32:14.333Z,47.15
2022-08-20T08:37:38.036Z,47.23
2022-08-20T08:43:04.269Z,47.17
2022-08-20T08:48:32.613Z,47.12
2022-08-20T08:53:55.914Z,47.04
2022-08-20T08:59:22.621Z,46.72
2022-08-20T09:04:44.861Z,46.77
2022-08-20T09:10:07.397Z,46.83
2022-08-20T09:15:29.074Z,46.67
2022-08-20T09:20:50.819Z,46.41
2022-08-20T09:26:13.711Z,46.30
2022-08-20T09:31:35.560Z,46.53
2022-08-20T09:36:59.474Z,46.41
2022-08-20T09:42:30.960Z,46.34
2022-08-20T09:48:10.309Z,46.52
2022-08-20T09:53:32.753Z,46.16
2022-08-20T09:58:57.242Z,46.28
2022-08-20T10:04:22.155Z,46.01
2022-08-20T10:09:44.022Z,45.80
2022-08-20T10:15:06.162Z,45.49
2022-08-20T10:20:27.879Z,45.61
2022-08-20T10:25:49.546Z,45.44
2022-08-20T10:31:12.513Z,44.97
2022-08-20T10:36:34.265Z,44.93
2022-08-20T10:41:55.958Z,44.46
2022-08-20T10:47:20.620Z,44.37
2022-08-20T10:52:42.443Z,44.11
2022-08-20T10:58:06.296Z,44.09
2022-08-20T11:03:28.076Z,43.25
2022-08-20T11:08:49.756Z,43.11
2022-08-20T11:14:13.180Z,42.29
2022-08-20T11:19:43.050Z,42.33
2022-08-20T11:25:06.717Z,42.29
2022-08-20T11:30:32.275Z,42.33
2022-08-20T11:35:53.960Z,42.10
2022-08-20T11:41:15.629Z,41.90
2022-08-20T11:46:37.598Z,41.67
2022-08-20T11:51:59.284Z,41.95
2022-08-20T11:57:26.602Z,41.33
2022-08-20T12:02:51.806Z,41.12
2022-08-20T12:08:25.132Z,40.43
2022-08-20T12:13:49.602Z,40.10
2022-08-20T12:19:11.387Z,40.21
2022-08-20T12:24:33.220Z,41.74
2022-08-20T12:29:57.207Z,40.41
2022-08-20T12:35:20.132Z,40.01
2022-08-20T12:40:41.900Z,40.01
2022-08-20T12:46:03.865Z,39.95
2022-08-20T12:51:25.633Z,39.48
2022-08-20T12:56:48.203Z,39.90
2022-08-20T13:02:14.363Z,40.08
2022-08-20T13:07:42.038Z,39.05
2022-08-20T13:13:04.194Z,39.68
2022-08-20T13:18:26.013Z,39.60
2022-08-20T13:23:47.720Z,39.35
2022-08-20T13:29:09.405Z,39.11
2022-08-20T13:34:31.210Z,39.15
2022-08-20T13:39:54.546Z,39.61
2022-08-20T13:45:16.439Z,38.68
2022-08-20T13:50:39.070Z,39.28
2022-08-20T13:56:00.846Z,38.63
2022-08-20T14:01:22.599Z,38.81
2022-08-20T14:06:44.351Z,38.40
2022-08-20T14:12:06.734Z,38.43
2022-08-20T14:17:32.188Z,38.58
2022-08-20T14:22:53.978Z,37.47
2022-08-20T14:28:22.066Z,37.39
2022-08-20T14:33:44.799Z,37.21
2022-08-20T14:39:06.649Z,38.03
2022-08-20T14:44:29.935Z,37.53
2022-08-20T14:49:53.465Z,37.99
2022-08-20T14:55:19.192Z,37.73
2022-08-20T15:00:42.314Z,37.75
2022-08-20T15:06:04.388Z,38.04
2022-08-20T15:11:32.393Z,38.11
2022-08-20T15:16:56.321Z,38.14
2022-08-20T15:22:18.691Z,38.25
2022-08-20T15:27:40.796Z,38.24
2022-08-20T15:33:03.236Z,38.14
2022-08-20T15:38:25.045Z,38.09
2022-08-20T15:43:46.906Z,37.52
2022-08-20T15:49:12.606Z,37.75
2022-08-20T15:54:35.115Z,37.97
2022-08-20T15:59:56.773Z,38.03
2022-08-20T16:05:28.090Z,38.16
2022-08-20T16:11:15.407Z,37.99
2022-08-20T16:16:46.694Z,38.05
2022-08-20T16:22:13.297Z,38.07
2022-08-20T16:27:40.745Z,38.02
2022-08-20T16:33:25.780Z,38.13
2022-08-20T16:38:57.262Z,38.24
2022-08-20T16:44:33.740Z,38.40
2022-08-20T16:50:13.538Z,38.30
2022-08-20T16:55:35.256Z,38.54
2022-08-20T17:01:25.513Z,38.27
2022-08-20T17:06:50.455Z,38.14
2022-08-20T17:12:28.046Z,38.69
2022-08-20T17:17:49.837Z,38.48
2022-08-20T17:23:18.118Z,38.44
2022-08-20T17:28:50.203Z,38.70
2022-08-20T17:34:20.753Z,38.20
2022-08-20T17:39:48.500Z,38.42
2022-08-20T17:45:18.548Z,38.37
2022-08-20T17:50:42.366Z,38.24
2022-08-20T17:56:23.603Z,38.44
2022-08-20T18:01:45.356Z,38.60
2022-08-20T18:07:06.982Z,38.68
2022-08-20T18:12:44.845Z,38.56
2022-08-20T18:18:26.282Z,38.12
2022-08-20T18:23:53.100Z,38.22
2022-08-20T18:29:23.837Z,37.94
2022-08-20T18:34:45.724Z,37.67
2022-08-20T18:40:17.186Z,38.09
2022-08-20T18:45:39.178Z,37.90
2022-08-20T18:51:07.881Z,38.00
2022-08-20T18:56:42.435Z,38.00
2022-08-20T19:02:19.814Z,38.12
2022-08-20T19:07:50.635Z,38.25
2022-08-20T19:13:37.013Z,38.28
2022-08-20T19:18:58.582Z,38.31
2022-08-20T19:24:26.077Z,38.29
2022-08-20T19:29:50.103Z,38.51
2022-08-20T19:35:18.716Z,38.32
2022-08-20T19:40:43.676Z,38.39
2022-08-20T19:46:08.550Z,38.65
2022-08-20T19:51:44.161Z,38.51
2022-08-20T19:57:11.138Z,38.80
2022-08-20T20:02:35.276Z,38.67
2022-08-20T20:07:58.530Z,38.79
2022-08-20T20:13:30.869Z,38.91
2022-08-20T20:19:22.627Z,38.84
2022-08-20T20:24:44.214Z,39.00
2022-08-20T20:30:10.683Z,39.09
2022-08-20T20:35:34.957Z,39.52
2022-08-20T20:41:02.606Z,39.19
2022-08-20T20:46:28.857Z,39.32
2022-08-20T20:51:55.570Z,39.66
2022-08-20T20:57:37.822Z,39.59
2022-08-20T21:03:02.659Z,39.58
2022-08-20T21:08:25.759Z,39.48
2022-08-20T21:13:47.579Z,39.75
2022-08-20T21:19:12.293Z,39.79
2022-08-20T21:24:34.024Z,39.73
2022-08-20T21:29:55.946Z,39.81
2022-08-20T21:35:18.179Z,40.21
2022-08-20T21:40:39.994Z,40.13
2022-08-20T21:46:04.205Z,40.15
2022-08-20T21:51:27.318Z,40.21
2022-08-20T21:56:54.512Z,39.68
2022-08-20T22:02:17.940Z,40.16
2022-08-20T22:07:40.905Z,40.09
2022-08-20T22:13:03.005Z,39.83
2022-08-20T22:18:25.147Z,40.25
2022-08-20T22:23:47.550Z,40.06
2022-08-20T22:29:11.316Z,40.31
2022-08-20T22:34:35.285Z,40.23
2022-08-20T22:39:57.217Z,40.24
2022-08-20T22:45:19.914Z,40.52
2022-08-20T22:50:41.785Z,40.41
2022-08-20T22:56:03.707Z,40.28
2022-08-20T23:01:26.808Z,40.56
2022-08-20T23:06:48.747Z,40.47
2022-08-20T23:12:10.813Z,40.48
2022-08-20T23:17:33.472Z,40.63
2022-08-20T23:22:55.177Z,40.55
2022-08-20T23:28:22.405Z,40.53
2022-08-20T23:33:45.008Z,40.49
2022-08-20T23:39:07.301Z,40.62
2022-08-20T23:44:30.294Z,40.61
2022-08-20T23:49:52.038Z,40.67
2022-08-20T23:55:13.825Z,40.88
